Time;durP1;ratioP1;P1;durP2;ratioP2;P2;SDS_P1;SDS_P2;PMS_P1;PMS_P2;Temp;Humidity;BMP_temperature;BMP_pressure;BME280_temperature;BME280_humidity;BME280_pressure;Samples;Min_cycle;Max_cycle;Signal;HPM_P1;HPM_P2
2021/06/10 00:00:15;;;;;;;9.63;6.60;;;;;;;16.23;100.00;101129.38;5216568;28;20029;-81
2021/06/10 00:02:46;;;;;;;7.82;5.80;;;;;;;16.34;100.00;101138.47;5213115;28;20567;-80
2021/06/10 00:05:20;;;;;;;7.55;6.03;;;;;;;16.48;100.00;101143.94;5191098;28;20111;-81
2021/06/10 00:07:53;;;;;;;6.97;5.55;;;;;;;16.60;100.00;101143.31;5218549;28;20036;-80
2021/06/10 00:10:25;;;;;;;6.97;5.75;;;;;;;16.73;100.00;101140.91;5202182;28;20047;-81
2021/06/10 00:12:56;;;;;;;9.93;6.25;;;;;;;16.64;100.00;101138.72;5218595;28;20020;-81
2021/06/10 00:15:31;;;;;;;7.45;6.63;;;;;;;16.77;100.00;101143.31;5217433;28;20025;-80
2021/06/10 00:18:03;;;;;;;9.52;7.32;;;;;;;16.63;100.00;101142.28;5207843;28;20479;-81
2021/06/10 00:20:36;;;;;;;9.85;6.72;;;;;;;16.64;100.00;101142.22;5217666;28;20108;-81
2021/06/10 00:23:07;;;;;;;10.18;7.47;;;;;;;16.55;100.00;101140.03;5221133;28;20059;-81
2021/06/10 00:25:37;;;;;;;8.25;6.70;;;;;;;16.54;100.00;101138.34;5224289;28;20020;-81
2021/06/10 00:28:08;;;;;;;9.10;7.10;;;;;;;16.54;100.00;101138.34;5212439;28;20035;-81
2021/06/10 00:30:39;;;;;;;12.50;7.32;;;;;;;16.49;100.00;101132.44;5202173;28;20399;-81
2021/06/10 00:33:10;;;;;;;11.95;7.20;;;;;;;16.44;100.00;101138.88;5222376;28;20930;-81
2021/06/10 00:35:40;;;;;;;8.90;7.13;;;;;;;16.32;100.00;101131.53;5203442;28;20064;-81
2021/06/10 00:38:10;;;;;;;11.98;7.57;;;;;;;16.25;100.00;101133.63;5205617;28;20048;-81
2021/06/10 00:40:41;;;;;;;11.30;6.47;;;;;;;16.46;100.00;101140.53;5224064;28;20025;-80
2021/06/10 00:43:11;;;;;;;10.68;6.53;;;;;;;16.66;100.00;101134.22;5206478;28;20032;-81
2021/06/10 00:45:41;;;;;;;7.85;6.25;;;;;;;16.47;100.00;101142.22;5221840;28;20055;-81
2021/06/10 00:48:12;;;;;;;12.57;5.47;;;;;;;16.51;100.00;101135.88;5203337;28;20025;-81
2021/06/10 00:50:44;;;;;;;12.20;5.25;;;;;;;16.47;100.00;101131.69;5222302;28;20035;-81
2021/06/10 00:53:27;;;;;;;9.93;5.45;;;;;;;16.37;100.00;101137.50;5202897;28;20070;-81
2021/06/10 00:55:59;;;;;;;7.97;5.68;;;;;;;16.30;100.00;101142.19;5219187;28;20025;-80
2021/06/10 00:58:29;;;;;;;8.27;5.60;;;;;;;16.29;100.00;101129.94;5233303;23;20025;-79
2021/06/10 01:01:03;;;;;;;10.55;6.07;;;;;;;15.96;100.00;101131.59;5204457;28;20064;-79
2021/06/10 01:03:35;;;;;;;8.35;5.65;;;;;;;16.11;100.00;101122.06;5207948;28;20482;-79
2021/06/10 01:06:21;;;;;;;8.05;5.45;;;;;;;16.07;100.00;101124.00;5190230;28;20041;-78
2021/06/10 01:09:04;;;;;;;11.50;6.00;;;;;;;15.93;100.00;101129.13;5189234;28;20149;-79
2021/06/10 01:11:58;;;;;;;11.38;6.72;;;;;;;15.81;100.00;101123.56;5190546;28;20025;-79
2021/06/10 01:14:40;;;;;;;8.60;7.10;;;;;;;15.93;100.00;101120.34;5190543;28;20032;-79
2021/06/10 01:17:12;;;;;;;10.60;6.90;;;;;;;15.92;100.00;101119.50;5205832;28;20025;-79
2021/06/10 01:20:04;;;;;;;8.38;7.05;;;;;;;16.00;100.00;101121.72;5183606;28;20072;-79
2021/06/10 01:22:57;;;;;;;11.13;7.03;;;;;;;15.95;100.00;101118.47;5205412;28;20056;-79
2021/06/10 01:25:57;;;;;;;11.70;7.28;;;;;;;15.98;100.00;101119.19;5187163;28;20112;-79
2021/06/10 01:28:34;;;;;;;12.13;7.40;;;;;;;15.97;100.00;101117.47;5187705;28;20033;-79
2021/06/10 01:31:08;;;;;;;7.40;6.60;;;;;;;16.05;100.00;101109.19;5186354;28;20028;-79
2021/06/10 01:33:42;;;;;;;11.50;5.68;;;;;;;15.98;100.00;101107.75;5197517;28;20037;-79
2021/06/10 01:36:18;;;;;;;10.95;6.47;;;;;;;15.68;100.00;101111.91;5180510;28;20423;-79
2021/06/10 01:38:50;;;;;;;11.15;7.65;;;;;;;15.53;100.00;101104.72;5181389;28;20052;-79
2021/06/10 01:41:21;;;;;;;10.70;7.50;;;;;;;15.39;100.00;101108.00;5180133;28;20120;-79
2021/06/10 01:43:53;;;;;;;14.95;6.75;;;;;;;15.10;100.00;101104.97;5196853;28;20152;-79
2021/06/10 01:46:25;;;;;;;12.50;5.97;;;;;;;15.26;100.00;101111.25;5202570;28;20025;-79
2021/06/10 01:48:57;;;;;;;7.75;5.43;;;;;;;15.52;100.00;101103.88;5207726;28;20064;-79
2021/06/10 01:51:31;;;;;;;8.73;6.15;;;;;;;15.46;100.00;101104.16;5197536;28;20026;-79
2021/06/10 01:54:04;;;;;;;8.68;5.95;;;;;;;15.49;100.00;101098.75;5182044;28;20049;-79
2021/06/10 01:56:36;;;;;;;8.90;6.50;;;;;;;15.63;100.00;101096.31;5186883;28;20499;-79
2021/06/10 01:59:08;;;;;;;10.10;6.97;;;;;;;15.37;100.00;101091.41;5202752;28;20052;-79
2021/06/10 02:01:39;;;;;;;7.50;6.70;;;;;;;15.12;100.00;101090.81;5197252;28;20029;-79
2021/06/10 02:04:11;;;;;;;10.90;6.82;;;;;;;15.25;100.00;101094.59;5198398;28;20061;-79
2021/06/10 02:06:42;;;;;;;12.90;6.68;;;;;;;15.14;100.00;101093.34;5198212;28;20444;-79
2021/06/10 02:09:13;;;;;;;10.45;6.85;;;;;;;15.10;100.00;101097.06;5198655;28;20052;-79
2021/06/10 02:11:45;;;;;;;9.80;6.70;;;;;;;15.07;100.00;101090.19;5193971;28;20028;-79
2021/06/10 02:14:19;;;;;;;7.80;6.80;;;;;;;14.97;100.00;101083.63;5181869;28;20018;-79
2021/06/10 02:16:51;;;;;;;7.68;6.10;;;;;;;15.09;100.00;101083.06;5184283;28;20022;-79
2021/06/10 02:19:22;;;;;;;8.90;6.57;;;;;;;15.13;100.00;101089.03;5176319;28;20128;-79
2021/06/10 02:21:52;;;;;;;9.10;6.57;;;;;;;14.97;100.00;101088.88;5199128;28;20045;-79
2021/06/10 02:24:23;;;;;;;11.57;7.22;;;;;;;14.86;100.00;101092.91;5200597;28;20033;-79
2021/06/10 02:26:54;;;;;;;12.02;7.80;;;;;;;14.90;100.00;101090.09;5193987;28;20064;-79
2021/06/10 02:29:24;;;;;;;11.50;7.97;;;;;;;14.91;100.00;101094.44;5198946;28;20662;-79
2021/06/10 02:31:54;;;;;;;13.65;8.50;;;;;;;14.82;100.00;101088.72;5196883;28;20507;-79
2021/06/10 02:34:25;;;;;;;10.23;7.78;;;;;;;14.82;100.00;101085.22;5181041;28;20605;-78
2021/06/10 02:36:55;;;;;;;10.07;7.72;;;;;;;14.75;100.00;101087.28;5196064;28;20044;-79
2021/06/10 02:39:27;;;;;;;9.35;7.57;;;;;;;14.85;100.00;101086.78;5199057;28;20025;-79
2021/06/10 02:41:58;;;;;;;11.90;8.07;;;;;;;14.98;100.00;101089.75;5178989;28;20073;-79
2021/06/10 02:44:29;;;;;;;14.60;8.73;;;;;;;15.02;100.00;101086.88;5198377;28;20030;-79
2021/06/10 02:47:04;;;;;;;9.65;7.70;;;;;;;14.86;100.00;101091.13;5197104;28;20080;-79
2021/06/10 02:49:34;;;;;;;11.02;8.60;;;;;;;14.90;100.00;101087.47;5193531;28;20026;-79
2021/06/10 02:52:06;;;;;;;12.18;7.50;;;;;;;15.11;100.00;101090.88;5198776;28;20104;-79
2021/06/10 02:54:36;;;;;;;15.55;8.25;;;;;;;15.07;100.00;101089.31;5203008;28;20441;-79
2021/06/10 02:57:07;;;;;;;11.77;7.32;;;;;;;14.96;100.00;101089.81;5182141;28;20025;-79
2021/06/10 02:59:41;;;;;;;17.92;9.85;;;;;;;14.80;100.00;101090.53;5198292;28;20040;-79
2021/06/10 03:02:12;;;;;;;14.27;8.90;;;;;;;14.83;100.00;101090.44;5192229;28;20414;-79
2021/06/10 03:04:45;;;;;;;9.70;7.68;;;;;;;15.10;100.00;101084.78;5181631;28;20029;-78
2021/06/10 03:07:17;;;;;;;11.88;7.57;;;;;;;14.93;100.00;101082.06;5196506;28;20033;-79
2021/06/10 03:09:48;;;;;;;10.30;7.07;;;;;;;14.91;100.00;101083.91;5179922;28;20472;-79
2021/06/10 03:12:20;;;;;;;15.05;7.50;;;;;;;15.22;100.00;101086.81;5197004;28;20026;-78
2021/06/10 03:14:50;;;;;;;8.98;7.45;;;;;;;15.34;100.00;101077.56;5179864;28;20109;-79
2021/06/10 03:17:21;;;;;;;13.15;7.72;;;;;;;15.28;100.00;101083.91;5178866;28;20151;-79
2021/06/10 03:19:51;;;;;;;13.18;8.15;;;;;;;15.22;100.00;101089.44;5197767;28;20033;-79
2021/06/10 03:22:22;;;;;;;10.05;7.28;;;;;;;15.25;100.00;101084.06;5196832;28;20091;-79
2021/06/10 03:24:53;;;;;;;10.48;6.75;;;;;;;15.34;100.00;101083.66;5178210;28;20108;-79
2021/06/10 03:27:24;;;;;;;11.25;7.28;;;;;;;15.15;100.00;101081.94;5202222;28;20029;-79
2021/06/10 03:29:54;;;;;;;13.63;7.78;;;;;;;15.13;100.00;101086.38;5198245;28;20855;-79
2021/06/10 03:32:26;;;;;;;12.02;7.68;;;;;;;15.08;100.00;101091.88;5196502;28;20045;-79
2021/06/10 03:34:57;;;;;;;10.65;7.40;;;;;;;15.00;100.00;101099.25;5197685;28;20087;-79
2021/06/10 03:37:31;;;;;;;13.80;8.45;;;;;;;15.13;100.00;101100.41;5176548;28;20530;-79
2021/06/10 03:40:04;;;;;;;11.70;8.38;;;;;;;15.32;100.00;101097.84;5202432;28;20025;-78
2021/06/10 03:42:36;;;;;;;11.02;8.55;;;;;;;15.26;100.00;101093.69;5195074;28;20041;-79
2021/06/10 03:45:07;;;;;;;12.30;7.80;;;;;;;15.39;100.00;101099.25;5198414;28;20056;-78
2021/06/10 03:47:38;;;;;;;10.80;7.70;;;;;;;15.42;100.00;101091.19;5194947;28;20073;-79
2021/06/10 03:50:09;;;;;;;15.63;8.93;;;;;;;15.36;100.00;101088.88;5197806;28;20744;-79
2021/06/10 03:52:40;;;;;;;15.43;8.65;;;;;;;15.31;100.00;101098.72;5178167;28;20025;-78
2021/06/10 03:55:11;;;;;;;11.95;8.27;;;;;;;15.42;100.00;101092.06;5188687;28;20032;-79
2021/06/10 03:57:41;;;;;;;11.27;8.23;;;;;;;15.15;100.00;101090.66;5192689;28;20121;-79
2021/06/10 04:00:12;;;;;;;16.10;7.80;;;;;;;15.06;100.00;101091.09;5194326;28;20877;-79
2021/06/10 04:02:42;;;;;;;15.05;7.35;;;;;;;15.07;100.00;101090.19;5198224;28;20020;-79
2021/06/10 04:05:13;;;;;;;9.90;6.25;;;;;;;14.93;100.00;101091.72;5199139;28;20029;-79
2021/06/10 04:07:43;;;;;;;10.98;6.60;;;;;;;15.07;100.00;101084.03;5204959;28;20080;-78
2021/06/10 04:10:14;;;;;;;10.63;6.38;;;;;;;15.48;100.00;101088.25;5203788;28;20049;-79
2021/06/10 04:12:44;;;;;;;12.40;6.72;;;;;;;15.52;100.00;101093.31;5204990;28;20034;-79
2021/06/10 04:15:15;;;;;;;9.75;7.15;;;;;;;15.68;100.00;101083.75;5205653;28;20037;-78
2021/06/10 04:17:46;;;;;;;12.88;7.25;;;;;;;15.81;100.00;101084.88;5205561;28;20080;-78
2021/06/10 04:20:16;;;;;;;10.15;6.97;;;;;;;15.88;100.00;101091.53;5202160;28;20049;-78
2021/06/10 04:22:48;;;;;;;10.45;8.05;;;;;;;15.89;100.00;101087.16;5188324;28;20570;-78
2021/06/10 04:25:18;;;;;;;11.02;8.32;;;;;;;15.82;100.00;101089.22;5191628;28;20434;-78
2021/06/10 04:27:48;;;;;;;15.05;9.38;;;;;;;15.64;100.00;101084.84;5194807;28;20026;-78
2021/06/10 04:30:19;;;;;;;12.18;8.55;;;;;;;15.82;100.00;101091.84;5208700;28;20637;-78
2021/06/10 04:32:49;;;;;;;16.15;7.68;;;;;;;16.38;100.00;101089.91;5203905;28;20033;-79
2021/06/10 04:35:20;;;;;;;9.63;6.97;;;;;;;17.06;100.00;101087.16;5194364;28;20642;-78
2021/06/10 04:37:50;;;;;;;10.02;7.43;;;;;;;17.44;100.00;101091.22;5198480;28;20119;-78
2021/06/10 04:40:20;;;;;;;15.18;7.22;;;;;;;18.41;98.71;101085.56;5192496;28;20033;-79
2021/06/10 04:42:51;;;;;;;13.95;6.97;;;;;;;19.53;90.73;101083.78;5199856;28;20033;-79
2021/06/10 04:45:21;;;;;;;9.57;6.40;;;;;;;20.49;89.45;101085.28;5182074;28;20041;-80
2021/06/10 04:47:51;;;;;;;7.47;4.80;;;;;;;22.12;83.47;101081.38;5198484;28;20284;-81
2021/06/10 04:50:26;;;;;;;8.73;5.35;;;;;;;21.39;83.36;101090.38;5180703;28;20383;-81
2021/06/10 04:52:56;;;;;;;10.77;5.90;;;;;;;21.05;83.13;101082.25;5196393;28;20033;-81
2021/06/10 04:55:26;;;;;;;7.87;5.20;;;;;;;21.69;83.35;101076.69;5186064;28;20643;-81
2021/06/10 04:57:56;;;;;;;12.20;6.13;;;;;;;20.82;85.58;101083.81;5187388;28;20287;-80
2021/06/10 05:00:27;;;;;;;9.40;5.85;;;;;;;22.43;79.08;101075.44;5190510;28;20315;-82
2021/06/10 05:02:57;;;;;;;9.88;5.63;;;;;;;23.11;77.48;101071.84;5192328;28;20494;-80
2021/06/10 05:05:27;;;;;;;8.68;6.55;;;;;;;21.80;83.51;101079.41;5179718;28;20029;-79
2021/06/10 05:07:58;;;;;;;11.43;6.50;;;;;;;22.37;79.65;101080.38;5184307;28;20036;-79
2021/06/10 05:10:28;;;;;;;11.27;6.90;;;;;;;21.43;83.54;101086.50;5183381;28;20279;-81
2021/06/10 05:12:59;;;;;;;10.32;6.53;;;;;;;22.39;83.46;101089.16;5184432;28;20761;-80
2021/06/10 05:15:29;;;;;;;12.80;6.63;;;;;;;24.64;72.88;101083.03;5182744;28;20021;-80
2021/06/10 05:17:59;;;;;;;9.37;7.03;;;;;;;23.27;77.28;101085.66;5201992;28;20060;-79
2021/06/10 05:20:30;;;;;;;11.30;6.28;;;;;;;23.71;78.11;101090.91;5185782;28;20281;-81
2021/06/10 05:23:00;;;;;;;8.73;5.93;;;;;;;24.75;73.46;101080.28;5186993;28;20037;-80
2021/06/10 05:25:31;;;;;;;14.63;6.88;;;;;;;23.88;75.57;101093.06;5206623;28;20082;-81
2021/06/10 05:28:01;;;;;;;16.15;7.20;;;;;;;23.51;77.06;101093.50;5209793;28;20032;-79
2021/06/10 05:30:32;;;;;;;13.05;7.50;;;;;;;23.70;78.63;101094.53;5202136;28;20026;-78
2021/06/10 05:33:02;;;;;;;8.88;6.93;;;;;;;23.53;78.02;101083.56;5180538;28;20025;-78
2021/06/10 05:35:32;;;;;;;11.60;6.57;;;;;;;23.55;78.90;101086.94;5202082;28;20028;-82
2021/06/10 05:38:02;;;;;;;11.23;7.70;;;;;;;22.58;83.87;101084.94;5183790;28;20280;-81
2021/06/10 05:40:33;;;;;;;9.70;7.50;;;;;;;22.19;85.54;101087.09;5208229;28;20321;-81
2021/06/10 05:43:03;;;;;;;9.05;7.97;;;;;;;21.97;86.93;101087.00;5206217;28;20104;-79
2021/06/10 05:45:33;;;;;;;10.88;8.80;;;;;;;22.09;85.32;101091.41;5201957;28;20101;-78
2021/06/10 05:48:06;;;;;;;15.48;8.95;;;;;;;22.12;88.25;101092.00;5196959;28;20017;-80
2021/06/10 05:50:37;;;;;;;10.10;8.93;;;;;;;21.75;88.95;101097.53;5181907;28;20435;-79
2021/06/10 05:53:08;;;;;;;11.55;9.20;;;;;;;21.81;88.96;101097.94;5178873;28;20034;-81
2021/06/10 05:55:38;;;;;;;16.13;10.68;;;;;;;21.51;90.71;101096.59;5181634;28;20077;-79
2021/06/10 05:58:09;;;;;;;17.38;9.73;;;;;;;22.19;89.11;101098.59;5178549;28;20512;-80
2021/06/10 06:00:40;;;;;;;14.35;10.27;;;;;;;22.33;87.39;101098.41;5189811;28;20251;-79
2021/06/10 06:03:12;;;;;;;12.35;10.10;;;;;;;22.49;87.55;101093.66;5185780;28;20029;-81
2021/06/10 06:05:42;;;;;;;16.67;9.88;;;;;;;22.53;85.51;101094.25;5183316;28;20384;-82
2021/06/10 06:08:14;;;;;;;15.15;10.93;;;;;;;22.67;86.49;101096.72;5199571;28;20025;-81
2021/06/10 06:10:47;;;;;;;19.83;11.32;;;;;;;22.36;86.62;101106.19;5190662;28;20163;-80
2021/06/10 06:13:22;;;;;;;16.25;10.40;;;;;;;21.93;92.01;101106.84;5180522;28;20036;-80
2021/06/10 06:16:03;;;;;;;14.85;11.25;;;;;;;21.84;91.70;101103.03;5181101;28;20025;-81
2021/06/10 06:18:33;;;;;;;17.58;11.93;;;;;;;21.83;91.92;101109.31;5199507;28;20021;-79
2021/06/10 06:21:04;;;;;;;19.10;10.80;;;;;;;22.42;88.77;101104.91;5178981;28;20022;-79
2021/06/10 06:23:34;;;;;;;15.48;11.88;;;;;;;22.77;88.90;101106.53;5196710;28;20552;-80
2021/06/10 06:26:05;;;;;;;16.23;11.43;;;;;;;23.27;86.42;101109.66;5187793;28;20037;-81
2021/06/10 06:28:41;;;;;;;15.48;12.27;;;;;;;22.63;89.89;101113.91;5208125;28;20028;-81
2021/06/10 06:31:12;;;;;;;16.80;11.57;;;;;;;23.48;86.32;101118.63;5200412;28;20026;-78
2021/06/10 06:33:42;;;;;;;15.23;10.80;;;;;;;23.94;85.08;101119.31;5191118;28;20155;-80
2021/06/10 06:36:12;;;;;;;16.83;12.02;;;;;;;24.61;80.39;101115.41;5202734;28;20359;-82
2021/06/10 06:38:43;;;;;;;16.08;11.60;;;;;;;24.62;79.73;101114.41;5186111;28;20034;-80
2021/06/10 06:41:14;;;;;;;16.40;12.30;;;;;;;25.34;78.35;101113.44;5181100;28;20031;-82
2021/06/10 06:43:45;;;;;;;15.80;12.23;;;;;;;24.87;82.08;101122.03;5181411;28;20068;-79
2021/06/10 06:46:15;;;;;;;16.48;12.77;;;;;;;25.35;77.67;101123.97;5189166;28;20451;-79
2021/06/10 06:48:45;;;;;;;15.65;10.80;;;;;;;25.57;78.31;101118.44;5184161;28;20032;-82
2021/06/10 06:51:16;;;;;;;15.80;11.45;;;;;;;25.64;79.61;101114.22;5197186;28;20029;-81
2021/06/10 06:53:46;;;;;;;18.10;13.02;;;;;;;26.13;77.71;101116.03;5198259;28;20155;-81
2021/06/10 06:56:17;;;;;;;17.98;14.77;;;;;;;24.88;78.51;101124.59;5181123;28;20257;-79
2021/06/10 07:01:20;;;;;;;19.92;15.48;;;;;;;24.90;81.46;101130.66;5194805;28;20046;-79
2021/06/10 07:03:51;;;;;;;18.80;14.27;;;;;;;26.19;77.53;101119.00;5192968;28;20387;-77
2021/06/10 07:06:22;;;;;;;18.30;14.80;;;;;;;25.87;77.57;101125.59;5193196;28;20109;-77
2021/06/10 07:08:52;;;;;;;17.25;14.27;;;;;;;25.21;78.57;101131.53;5191110;28;20153;-78
2021/06/10 07:11:22;;;;;;;16.17;13.48;;;;;;;25.87;78.11;101121.06;5193727;28;20468;-77
2021/06/10 07:13:53;;;;;;;17.83;14.15;;;;;;;26.07;75.74;101121.94;5193352;28;20033;-79
2021/06/10 07:16:23;;;;;;;15.53;13.27;;;;;;;26.44;76.59;101114.91;5193193;28;20071;-78
2021/06/10 07:18:53;;;;;;;14.13;12.50;;;;;;;27.42;71.61;101118.81;5195820;28;20277;-77
2021/06/10 07:21:24;;;;;;;13.90;12.30;;;;;;;27.57;69.28;101119.16;5191100;28;20293;-79
2021/06/10 07:23:54;;;;;;;17.13;13.82;;;;;;;27.17;72.16;101118.63;5194293;28;20038;-79
2021/06/10 07:26:25;;;;;;;12.70;11.10;;;;;;;27.86;70.20;101126.09;5194078;28;20061;-79
2021/06/10 07:28:55;;;;;;;13.87;12.43;;;;;;;27.17;72.51;101115.94;5194808;28;20040;-80
2021/06/10 07:31:25;;;;;;;15.33;12.67;;;;;;;27.03;73.79;101119.06;5195835;28;20340;-79
2021/06/10 07:33:55;;;;;;;17.03;11.50;;;;;;;27.09;73.58;101123.88;5192151;28;20033;-79
2021/06/10 07:36:26;;;;;;;20.77;14.57;;;;;;;26.20;75.62;101130.56;5194051;28;20021;-78
2021/06/10 07:38:56;;;;;;;14.90;10.57;;;;;;;28.79;68.76;101117.41;5195596;28;20056;-79
2021/06/10 07:41:27;;;;;;;13.70;11.32;;;;;;;27.03;72.84;101117.25;5196556;28;20788;-78
2021/06/10 07:43:57;;;;;;;15.90;10.52;;;;;;;28.33;68.79;101116.00;5193351;28;20033;-79
2021/06/10 07:46:28;;;;;;;13.10;11.73;;;;;;;29.10;66.26;101115.94;5195922;28;20116;-80
2021/06/10 07:48:58;;;;;;;13.07;11.38;;;;;;;28.23;68.72;101116.06;5193857;28;20049;-78
2021/06/10 07:51:29;;;;;;;14.93;11.88;;;;;;;27.82;70.96;101123.84;5196673;28;20032;-78
2021/06/10 07:53:59;;;;;;;12.13;10.50;;;;;;;28.61;67.05;101121.13;5193754;28;20041;-79
2021/06/10 07:56:29;;;;;;;14.37;11.17;;;;;;;27.07;73.63;101115.94;5189457;28;20285;-79
2021/06/10 07:58:59;;;;;;;14.23;9.80;;;;;;;28.23;71.19;101121.44;5193703;28;20315;-78
2021/06/10 08:01:30;;;;;;;12.67;10.67;;;;;;;28.88;66.86;101124.53;5195192;28;20338;-78
2021/06/10 08:04:00;;;;;;;13.67;12.20;;;;;;;27.57;70.27;101120.00;5196475;28;20284;-79
2021/06/10 08:06:31;;;;;;;14.80;10.67;;;;;;;28.38;67.99;101128.00;5195688;28;20108;-79
2021/06/10 08:09:02;;;;;;;12.68;10.23;;;;;;;28.54;67.34;101122.78;5192692;28;20033;-78
2021/06/10 08:11:34;;;;;;;12.77;10.65;;;;;;;29.14;63.95;101121.88;5192387;28;20014;-79
2021/06/10 08:14:04;;;;;;;13.52;10.88;;;;;;;29.14;63.61;101124.56;5196657;28;20044;-79
2021/06/10 08:16:35;;;;;;;12.52;8.45;;;;;;;30.16;61.80;101127.88;5191925;28;20026;-79
2021/06/10 08:19:05;;;;;;;10.60;8.05;;;;;;;28.86;63.71;101123.84;5196765;28;20558;-79
2021/06/10 08:21:35;;;;;;;9.70;8.63;;;;;;;29.27;65.20;101124.97;5196370;28;20045;-79
2021/06/10 08:24:06;;;;;;;10.63;8.27;;;;;;;31.38;58.23;101118.53;5193256;28;20488;-79
2021/06/10 08:26:38;;;;;;;10.57;9.05;;;;;;;29.12;61.99;101123.88;5189409;28;20280;-79
2021/06/10 08:29:09;;;;;;;11.15;9.05;;;;;;;30.86;61.21;101117.28;5195467;28;20105;-79
2021/06/10 08:31:39;;;;;;;8.95;6.63;;;;;;;31.08;60.73;101110.31;5191199;28;20026;-79
2021/06/10 08:34:10;;;;;;;10.32;7.80;;;;;;;30.23;62.36;101119.97;5198196;28;20036;-79
2021/06/10 08:36:40;;;;;;;10.43;7.72;;;;;;;30.47;63.11;101114.56;5190474;28;20113;-79
2021/06/10 08:39:11;;;;;;;8.77;7.10;;;;;;;31.27;61.41;101113.50;5191028;28;20594;-79
2021/06/10 08:41:42;;;;;;;6.95;5.38;;;;;;;30.27;61.20;101107.84;5190767;28;20312;-78
2021/06/10 08:44:12;;;;;;;6.75;5.28;;;;;;;30.21;59.50;101113.88;5198840;28;20056;-79
2021/06/10 08:46:43;;;;;;;7.63;6.18;;;;;;;29.96;62.36;101117.53;5198552;28;20033;-79
2021/06/10 08:49:14;;;;;;;7.80;5.37;;;;;;;29.95;61.78;101107.75;5198717;28;20018;-79
2021/06/10 08:51:45;;;;;;;7.30;5.32;;;;;;;30.83;59.61;101107.84;5197333;28;20723;-79
2021/06/10 08:54:16;;;;;;;7.97;6.07;;;;;;;31.09;58.98;101107.47;5198137;28;20069;-79
2021/06/10 08:56:46;;;;;;;9.80;6.10;;;;;;;32.52;53.79;101109.63;5193334;28;20038;-79
2021/06/10 08:59:16;;;;;;;11.15;5.88;;;;;;;31.70;53.80;101109.47;5198138;28;20539;-79
2021/06/10 09:01:47;;;;;;;7.78;5.15;;;;;;;31.21;57.05;101114.19;5197149;28;20029;-79
2021/06/10 09:04:17;;;;;;;7.80;5.50;;;;;;;30.77;57.02;101119.34;5197110;28;20098;-79
2021/06/10 09:06:53;;;;;;;7.40;5.75;;;;;;;32.32;55.19;101114.69;5196601;28;20304;-79
2021/06/10 09:09:35;;;;;;;7.63;5.47;;;;;;;31.69;58.88;101114.03;5192512;28;20087;-79
2021/06/10 09:12:09;;;;;;;7.65;5.75;;;;;;;30.48;59.30;101111.72;5198016;28;20104;-79
2021/06/10 09:14:59;;;;;;;7.35;5.30;;;;;;;30.87;57.50;101118.13;5196467;28;20057;-79
2021/06/10 09:17:42;;;;;;;8.95;6.82;;;;;;;31.10;57.22;101111.84;5197570;28;20049;-79
2021/06/10 09:20:18;;;;;;;8.23;5.57;;;;;;;31.17;58.07;101110.16;5196398;28;20040;-79
2021/06/10 09:23:07;;;;;;;7.78;5.40;;;;;;;33.01;55.99;101117.13;5196310;28;20049;-79
2021/06/10 09:25:38;;;;;;;8.82;6.20;;;;;;;31.97;56.49;101107.13;5197110;28;20037;-79
2021/06/10 09:28:08;;;;;;;9.23;6.00;;;;;;;31.54;60.46;101104.94;5199074;28;20036;-79
2021/06/10 09:30:42;;;;;;;9.05;6.22;;;;;;;31.43;62.52;101115.31;5195378;28;20018;-79
2021/06/10 09:33:16;;;;;;;6.25;5.32;;;;;;;31.79;58.04;101114.66;5196553;28;20033;-78
2021/06/10 09:35:47;;;;;;;8.80;5.95;;;;;;;33.18;55.56;101113.22;5196121;28;20033;-78
2021/06/10 09:38:21;;;;;;;11.70;6.22;;;;;;;31.05;59.14;101108.78;5195279;28;20025;-79
2021/06/10 09:41:02;;;;;;;8.00;5.57;;;;;;;31.67;57.98;101104.44;5194147;28;20463;-79
2021/06/10 09:43:46;;;;;;;8.05;6.80;;;;;;;32.27;56.58;101111.69;5197059;28;20025;-78
2021/06/10 09:46:16;;;;;;;6.55;5.07;;;;;;;32.79;57.02;101101.78;5195442;28;20072;-79
2021/06/10 09:49:03;;;;;;;7.47;5.70;;;;;;;33.06;56.54;101103.84;5196840;28;20033;-79
2021/06/10 09:51:33;;;;;;;9.90;6.65;;;;;;;32.72;56.86;101111.66;5197117;28;20778;-79
2021/06/10 09:54:03;;;;;;;7.65;6.07;;;;;;;31.77;56.51;101105.88;5197070;28;20087;-78
2021/06/10 09:56:34;;;;;;;10.80;6.33;;;;;;;29.92;59.03;101111.59;5190207;28;20057;-77
2021/06/10 09:59:06;;;;;;;9.45;6.72;;;;;;;29.81;60.97;101100.28;5192234;28;20037;-78
2021/06/10 10:01:36;;;;;;;8.75;7.03;;;;;;;30.15;60.45;101101.06;5193954;28;20022;-78
2021/06/10 10:04:07;;;;;;;10.15;6.20;;;;;;;30.73;59.48;101090.97;5197013;28;20040;-79
2021/06/10 10:06:37;;;;;;;9.20;6.65;;;;;;;31.37;57.25;101094.38;5194145;28;20029;-79
2021/06/10 10:09:08;;;;;;;11.70;7.80;;;;;;;31.22;56.76;101093.44;5194732;28;20026;-78
2021/06/10 10:11:38;;;;;;;10.48;6.85;;;;;;;30.75;59.04;101095.19;5196586;28;20025;-79
2021/06/10 10:14:12;;;;;;;14.97;9.23;;;;;;;30.41;58.91;101099.06;5193594;28;20033;-77
2021/06/10 10:16:42;;;;;;;11.38;9.30;;;;;;;29.94;60.24;101106.06;5194827;28;20280;-78
2021/06/10 10:19:13;;;;;;;12.70;9.70;;;;;;;29.77;60.66;101094.38;5194250;28;20032;-78
2021/06/10 10:21:43;;;;;;;10.90;8.60;;;;;;;28.82;62.85;101106.31;5194117;28;20014;-78
2021/06/10 10:24:15;;;;;;;12.18;10.55;;;;;;;27.85;64.25;101105.59;5196595;28;20030;-78
2021/06/10 10:26:45;;;;;;;12.23;10.13;;;;;;;27.60;63.53;101103.59;5194492;28;20026;-78
2021/06/10 10:29:16;;;;;;;12.25;10.25;;;;;;;27.21;66.24;101095.84;5192524;28;20018;-78
2021/06/10 10:31:49;;;;;;;12.90;10.30;;;;;;;27.47;65.49;101089.66;5190747;28;20851;-78
2021/06/10 10:34:29;;;;;;;13.18;9.48;;;;;;;28.18;66.80;101088.78;5196441;28;20033;-78
2021/06/10 10:36:59;;;;;;;14.25;10.45;;;;;;;28.14;64.74;101087.38;5193218;28;20076;-77
2021/06/10 10:39:34;;;;;;;12.88;11.27;;;;;;;28.29;63.28;101083.16;5207920;28;20487;-78
2021/06/10 10:42:06;;;;;;;15.18;11.30;;;;;;;28.32;62.10;101087.44;5191793;28;20040;-79
2021/06/10 10:44:36;;;;;;;13.70;11.02;;;;;;;28.11;63.48;101087.69;5192626;28;20113;-78
2021/06/10 10:47:10;;;;;;;14.43;12.35;;;;;;;27.56;61.83;101086.09;5196147;28;20160;-77
2021/06/10 10:49:48;;;;;;;14.30;11.05;;;;;;;27.70;61.96;101090.94;5190205;28;20096;-77
2021/06/10 10:52:25;;;;;;;15.32;12.50;;;;;;;27.60;60.61;101082.09;5195684;28;20029;-79
2021/06/10 10:55:20;;;;;;;15.55;11.75;;;;;;;27.78;62.26;101084.84;5194013;28;20078;-77
2021/06/10 10:57:58;;;;;;;14.35;11.65;;;;;;;27.71;60.94;101084.59;5192675;28;20083;-78
2021/06/10 11:00:48;;;;;;;15.13;11.73;;;;;;;27.78;61.63;101084.84;5197876;28;20112;-77
2021/06/10 11:03:23;;;;;;;14.43;12.93;;;;;;;27.39;59.92;101069.91;5196677;28;20037;-78
2021/06/10 11:05:55;;;;;;;14.15;11.60;;;;;;;28.14;61.62;101081.19;5190848;28;20773;-77
2021/06/10 11:09:00;;;;;;;16.10;13.13;;;;;;;27.66;59.06;101081.50;5193035;28;20749;-77
2021/06/10 11:12:01;;;;;;;14.38;11.20;;;;;;;27.55;59.90;101081.72;5195466;28;20025;-78
2021/06/10 11:14:43;;;;;;;14.05;11.27;;;;;;;27.69;59.40;101081.19;5184275;28;20419;-79
2021/06/10 11:17:20;;;;;;;18.13;11.43;;;;;;;27.59;59.38;101077.72;5190276;28;20026;-77
2021/06/10 11:19:56;;;;;;;17.50;11.98;;;;;;;27.98;61.40;101081.03;5190261;28;20045;-77
2021/06/10 11:22:36;;;;;;;14.23;10.90;;;;;;;28.46;61.49;101074.25;5192688;28;20052;-78
2021/06/10 11:25:11;;;;;;;14.15;11.32;;;;;;;28.46;60.49;101066.19;5196257;28;20422;-78
2021/06/10 11:27:44;;;;;;;14.75;9.52;;;;;;;28.78;61.25;101069.09;5195432;28;20037;-77
2021/06/10 11:30:21;;;;;;;13.32;9.38;;;;;;;28.47;60.57;101065.19;5192704;28;20139;-77
2021/06/10 11:33:03;;;;;;;12.98;10.43;;;;;;;28.07;58.77;101058.59;5195339;28;20033;-76
2021/06/10 11:35:41;;;;;;;12.52;8.98;;;;;;;27.70;57.74;101063.22;5190690;28;20077;-77
2021/06/10 11:38:14;;;;;;;12.50;10.15;;;;;;;27.33;58.36;101057.94;5193797;28;20029;-77
2021/06/10 11:40:50;;;;;;;13.32;11.38;;;;;;;27.11;59.49;101058.31;5192503;28;20025;-78